Extreme hitte van: 26-08-2019 06:59 tot: 27-08-2019 23:59 waarschuwing voor: Extreme hitte niveau: Geel info button


Onweer radar Meer informatie blitzortung!


Regen radar Meer informatie rain snow radar


Bezoek onze andere website:

Template documentation
and downloads

And another site

Forum Leuven-template

EUWEATHER.EU

Verwachtingen Meteociel


U vindt ons ook hier:

Het Weer Aktueel

UK Metoffice

European Weather Network

WeatherCloud

Weather Underground

Benelux Weer Netwerk

AWEKAS

WeatherlinkIP

HAMweather, WeatherForYou, PWS Weather

Wetterpage 24

Wetter.com



METAR rapporten vliegvelden

   
EBAW - Antwerp
Gewijzigd: 26-08-2019 07:20
Shallow Fog, Gedeeltelijk bewolkt  
Shallow Fog, Gedeeltelijk bewolkt  
   Wind: varieert 1.9 km/h
Wind: varieert 1.9 km/h
Temperatuur: 16°C
Dauwpunt: 14°C
Vochtigheid: 88%
Barometer: 1019 hPa
Bewolking: Gedeeltelijk bewolkt
Zicht: 7 km
Bewolking: Gedeeltelijk bewolkt
EBAW 260520Z VRB01KT 7000 MIFG NSC 16/14 Q1019 NOSIG
EBLG - Liège
Gewijzigd: 26-08-2019 07:20
Helder  
Helder  
   Wind: ZZO 7.4 km/h
Wind: ZZO 7.4 km/h
Temperatuur: 18°C
Dauwpunt: 14°C
Vochtigheid: 78%
Barometer: 1019 hPa
Zicht: meer dan 10 km
Bewolking: Helder
EBLG 260520Z 15004KT CAVOK 18/14 Q1019 NOSIG
EBCV - Mons/Bergen
Gewijzigd: 26-08-2019 07:14
Helder  
Helder  
   Wind: varieert 1.9 km/h
Wind: varieert 1.9 km/h
Temperatuur: 13°C
Dauwpunt: 12°C
Vochtigheid: 94%
Barometer: 1019 hPa
Bewolking: Helder
Zicht: 7 km
Bewolking: Helder
EBCV 260514Z AUTO VRB01KT 7000 NCD 13/12 Q1019 WHT
EHBK - Maastricht
Gewijzigd: 26-08-2019 07:25
Helder  
Helder  
   Wind: Zuiden 5.6 km/h
Wind: Zuiden 5.6 km/h
Temperatuur: 17°C
Dauwpunt: 15°C
Vochtigheid: 88%
Barometer: 1018 hPa
Bewolking: Helder
Zicht: meer dan 10 km
Bewolking: Helder
EHBK 260525Z AUTO 18003KT 9999 NCD 17/15 Q1018 NOSIG
ELLX - Luxemburg
Gewijzigd: 26-08-2019 07:20
Helder  
Helder  
   Wind: NO 9.3 km/h
Wind: NO 9.3 km/h
Temperatuur: 20°C
Dauwpunt: 16°C
Vochtigheid: 78%
Barometer: 1019 hPa
Zicht: meer dan 10 km
Bewolking: Helder
ELLX 260520Z 04005KT CAVOK 20/16 Q1019 NOSIG
EBOS - Oostende
Gewijzigd: 26-08-2019 07:20
Nevel, Gedeeltelijk bewolkt  
Nevel, Gedeeltelijk bewolkt  
   Wind: varieert 1.9 km/h
Wind: varieert 1.9 km/h
Temperatuur: 14°C
Dauwpunt: 12°C
Vochtigheid: 88%
Barometer: 1019 hPa
Bewolking: Gedeeltelijk bewolkt
Zicht: 4 km
Bewolking: Gedeeltelijk bewolkt
EBOS 260520Z VRB01KT 3500 BR NSC 14/12 Q1019 BECMG 4000 BR

Script ontwikkeld door  Saratoga-weather.org Aangepast voor de template door  Weerstation Leuven

Apparatuur in gebruik:

Weerstation
Davis VP2

Weerprogramma
Meteobridge

Weercomputer
Asus WL -330N3G

Webleverancier
Onecom

Davis VP2

Meteobridge

Asus WL -330N3G

Onecom